Time;durP1;ratioP1;P1;durP2;ratioP2;P2;SDS_P1;SDS_P2;PMS_P1;PMS_P2;Temp;Humidity;BMP_temperature;BMP_pressure;BME280_temperature;BME280_humidity;BME280_pressure;Samples;Min_cycle;Max_cycle;Signal;HPM_P1;HPM_P2
2023/07/26 00:02:19;;;;;;;8.10;5.75;;;13.00;99.90;;;;;;4980426;28;20065;-58
2023/07/26 00:04:45;;;;;;;17.48;5.47;;;13.00;99.90;;;;;;4978950;28;20065;-59
2023/07/26 00:07:10;;;;;;;8.52;5.53;;;13.00;99.90;;;;;;4967712;28;20062;-59
2023/07/26 00:09:36;;;;;;;8.10;6.07;;;13.00;99.90;;;;;;4980836;28;20541;-59
2023/07/26 00:12:02;;;;;;;6.72;5.00;;;13.00;99.90;;;;;;4976633;28;20411;-58
2023/07/26 00:14:28;;;;;;;6.57;4.80;;;13.10;99.90;;;;;;4979863;28;20106;-58
2023/07/26 00:16:54;;;;;;;9.82;5.35;;;13.10;99.90;;;;;;4978447;28;20034;-59
2023/07/26 00:19:20;;;;;;;6.97;5.47;;;13.10;99.90;;;;;;4979755;28;20523;-60
2023/07/26 00:21:46;;;;;;;7.13;5.22;;;13.10;99.90;;;;;;4979059;28;20037;-59
2023/07/26 00:24:12;;;;;;;5.45;4.72;;;13.10;99.90;;;;;;4979955;28;20118;-59
2023/07/26 00:26:38;;;;;;;7.70;4.90;;;13.10;99.90;;;;;;4978776;28;20142;-58
2023/07/26 00:29:03;;;;;;;10.43;4.80;;;13.10;99.90;;;;;;4980599;28;20023;-58
2023/07/26 00:31:29;;;;;;;7.82;4.32;;;13.10;99.90;;;;;;4980131;28;20511;-59
2023/07/26 00:33:55;;;;;;;7.30;4.28;;;13.00;99.90;;;;;;4979176;28;20043;-59
2023/07/26 00:36:21;;;;;;;9.25;4.45;;;13.00;99.90;;;;;;4977883;28;20114;-58
2023/07/26 00:38:46;;;;;;;10.43;4.85;;;13.00;99.90;;;;;;4978067;28;20478;-59
2023/07/26 00:41:12;;;;;;;6.88;4.43;;;13.00;99.90;;;;;;4978312;28;20490;-59
2023/07/26 00:43:38;;;;;;;10.50;5.47;;;12.90;99.90;;;;;;4982404;28;20121;-57
2023/07/26 00:46:06;;;;;;;8.50;4.35;;;12.90;99.90;;;;;;4979514;28;20067;-59
2023/07/26 00:48:33;;;;;;;14.73;6.05;;;13.00;99.90;;;;;;4975660;28;20081;-58
2023/07/26 00:51:00;;;;;;;6.68;4.88;;;12.90;99.90;;;;;;4977239;28;20105;-57
2023/07/26 00:53:27;;;;;;;5.85;5.28;;;12.90;99.90;;;;;;4978141;28;20342;-59
2023/07/26 00:55:53;;;;;;;5.40;4.90;;;12.90;99.90;;;;;;4981479;28;20109;-58
2023/07/26 00:58:19;;;;;;;8.38;5.30;;;13.00;99.90;;;;;;4980645;28;20030;-57
2023/07/26 01:00:46;;;;;;;8.65;5.60;;;13.00;99.90;;;;;;4980108;28;20031;-60
2023/07/26 01:03:12;;;;;;;11.88;4.53;;;13.00;99.90;;;;;;4979167;28;20508;-57
2023/07/26 01:05:55;;;;;;;9.48;4.38;;;13.00;99.90;;;;;;4978676;28;20031;-59
2023/07/26 01:08:26;;;;;;;8.70;4.43;;;13.00;99.90;;;;;;4977507;28;20022;-57
2023/07/26 01:11:05;;;;;;;4.95;4.55;;;12.90;99.90;;;;;;4980329;28;20054;-58
2023/07/26 01:13:55;;;;;;;7.97;5.22;;;13.00;99.90;;;;;;4976290;28;20026;-58
2023/07/26 01:16:21;;;;;;;6.60;4.50;;;12.90;99.90;;;;;;4975733;28;20122;-57
2023/07/26 01:18:47;;;;;;;6.35;4.53;;;13.00;99.90;;;;;;4974392;28;20058;-58
2023/07/26 01:21:12;;;;;;;5.07;4.45;;;13.00;99.90;;;;;;4983892;28;20054;-58
2023/07/26 01:23:39;;;;;;;5.57;4.65;;;13.00;99.90;;;;;;4978757;28;20118;-59
2023/07/26 01:26:05;;;;;;;11.95;4.93;;;13.00;99.90;;;;;;4974797;28;20035;-59
2023/07/26 01:28:31;;;;;;;9.65;5.07;;;13.00;99.90;;;;;;4975228;28;20582;-59
2023/07/26 01:30:59;;;;;;;6.35;4.15;;;13.00;99.90;;;;;;4983845;28;20049;-57
2023/07/26 01:33:27;;;;;;;5.95;4.65;;;13.00;99.90;;;;;;4979952;28;20395;-59
2023/07/26 01:35:53;;;;;;;12.05;5.32;;;13.10;99.90;;;;;;4977934;28;20030;-58
2023/07/26 01:38:20;;;;;;;10.25;4.55;;;13.10;99.90;;;;;;4976967;28;20034;-58
2023/07/26 01:40:47;;;;;;;6.75;4.65;;;13.00;99.90;;;;;;4978317;28;20042;-59
2023/07/26 01:43:13;;;;;;;6.22;4.90;;;13.00;99.90;;;;;;4975929;28;20026;-57
2023/07/26 01:45:38;;;;;;;6.20;4.68;;;13.10;99.90;;;;;;4978875;28;20364;-59
2023/07/26 01:48:04;;;;;;;8.30;4.32;;;13.10;99.90;;;;;;4979159;28;20066;-60
2023/07/26 01:50:30;;;;;;;9.32;4.03;;;13.10;99.90;;;;;;4979601;28;20019;-59
2023/07/26 01:52:56;;;;;;;10.57;5.03;;;13.10;99.90;;;;;;4976817;28;20061;-58
2023/07/26 01:55:21;;;;;;;10.10;4.55;;;13.10;99.90;;;;;;4978826;28;20032;-59
2023/07/26 01:57:47;;;;;;;6.32;4.50;;;13.10;99.90;;;;;;4978697;28;20031;-59
2023/07/26 02:00:13;;;;;;;11.20;5.25;;;13.10;99.90;;;;;;4975313;28;20825;-59
2023/07/26 02:02:39;;;;;;;9.48;4.47;;;13.10;99.90;;;;;;4976691;28;20483;-59
2023/07/26 02:05:05;;;;;;;9.65;4.93;;;13.20;99.90;;;;;;4974464;28;20026;-58
2023/07/26 02:07:31;;;;;;;8.45;4.75;;;13.20;99.90;;;;;;4976549;28;20137;-60
2023/07/26 02:09:57;;;;;;;7.63;4.95;;;13.10;99.90;;;;;;4979747;28;20038;-59
2023/07/26 02:12:23;;;;;;;11.43;5.45;;;13.20;99.90;;;;;;4979384;28;21312;-60
2023/07/26 02:14:48;;;;;;;7.85;5.35;;;13.10;99.90;;;;;;4977520;28;20023;-58
2023/07/26 02:17:14;;;;;;;11.48;5.63;;;13.10;99.90;;;;;;4978600;28;20034;-57
2023/07/26 02:19:40;;;;;;;9.43;5.57;;;13.10;99.90;;;;;;4977097;28;20142;-59
2023/07/26 02:22:05;;;;;;;6.15;4.38;;;13.10;99.90;;;;;;4976582;28;20022;-60
2023/07/26 02:24:33;;;;;;;10.52;5.35;;;13.00;99.90;;;;;;4978573;28;20026;-59
2023/07/26 02:26:58;;;;;;;16.05;6.10;;;13.00;99.90;;;;;;4975369;28;20418;-59
2023/07/26 02:29:24;;;;;;;12.73;5.85;;;12.90;99.90;;;;;;4976795;28;20042;-58
2023/07/26 02:31:50;;;;;;;9.88;6.28;;;12.80;99.90;;;;;;4974613;28;20038;-59
2023/07/26 02:34:15;;;;;;;13.95;7.50;;;12.80;99.90;;;;;;4976518;28;20030;-59
2023/07/26 02:36:41;;;;;;;11.07;6.13;;;12.80;99.90;;;;;;4977690;28;20436;-58
2023/07/26 02:39:06;;;;;;;24.42;7.55;;;12.80;99.90;;;;;;4975131;28;20364;-58
2023/07/26 02:41:32;;;;;;;8.55;6.55;;;12.80;99.90;;;;;;4977249;28;20823;-59
2023/07/26 02:43:58;;;;;;;11.98;5.63;;;12.80;99.90;;;;;;4978193;28;20053;-59
2023/07/26 02:46:23;;;;;;;11.65;6.30;;;12.70;99.90;;;;;;4975317;28;20027;-59
2023/07/26 02:48:49;;;;;;;8.73;6.55;;;12.70;99.90;;;;;;4978190;28;20074;-60
2023/07/26 02:51:15;;;;;;;7.97;6.43;;;12.70;99.90;;;;;;4974384;28;20351;-59
2023/07/26 02:53:40;;;;;;;11.02;6.47;;;12.70;99.90;;;;;;4977888;28;20434;-59
2023/07/26 02:56:06;;;;;;;12.93;6.57;;;12.70;99.90;;;;;;4976220;28;20027;-59
2023/07/26 02:58:31;;;;;;;10.88;6.50;;;12.70;99.90;;;;;;4980656;28;20015;-59
2023/07/26 03:00:57;;;;;;;12.05;6.20;;;12.70;99.90;;;;;;4976304;28;20023;-59
2023/07/26 03:03:23;;;;;;;6.93;6.15;;;12.60;99.90;;;;;;4979877;28;20086;-58
2023/07/26 03:05:48;;;;;;;10.07;6.10;;;12.60;99.90;;;;;;4977610;28;20035;-58
2023/07/26 03:08:14;;;;;;;10.02;6.72;;;12.60;99.90;;;;;;4977733;28;20243;-59
2023/07/26 03:10:40;;;;;;;11.77;6.68;;;12.60;99.90;;;;;;4976641;28;20035;-59
2023/07/26 03:13:05;;;;;;;22.52;7.97;;;12.60;99.90;;;;;;4975632;28;20038;-59
2023/07/26 03:15:31;;;;;;;11.65;7.15;;;12.60;99.90;;;;;;4974505;28;20026;-60
2023/07/26 03:17:56;;;;;;;11.20;6.28;;;12.60;99.90;;;;;;4977494;28;20019;-58
2023/07/26 03:20:22;;;;;;;21.70;8.13;;;12.60;99.90;;;;;;4975406;28;20049;-59
2023/07/26 03:22:48;;;;;;;10.68;6.80;;;12.70;99.90;;;;;;4976531;28;20473;-59
2023/07/26 03:25:13;;;;;;;14.52;6.75;;;12.60;99.90;;;;;;4976839;28;20030;-59
2023/07/26 03:27:39;;;;;;;10.65;7.20;;;12.60;99.90;;;;;;4976989;28;20026;-60
2023/07/26 03:30:05;;;;;;;9.35;7.22;;;12.60;99.90;;;;;;4976707;28;20042;-59
2023/07/26 03:32:31;;;;;;;10.93;7.47;;;12.60;99.90;;;;;;4973687;28;20041;-58
2023/07/26 03:34:56;;;;;;;15.00;7.50;;;12.60;99.90;;;;;;4974617;28;20011;-59
2023/07/26 03:37:22;;;;;;;9.18;7.50;;;12.60;99.90;;;;;;4975087;28;20109;-59
2023/07/26 03:39:48;;;;;;;9.07;7.00;;;12.60;99.90;;;;;;4979110;28;20078;-58
2023/07/26 03:42:13;;;;;;;11.68;6.85;;;12.60;99.90;;;;;;4975949;28;20438;-59
2023/07/26 03:44:39;;;;;;;9.40;6.03;;;12.60;99.90;;;;;;4973905;28;20041;-59
2023/07/26 03:47:05;;;;;;;20.75;7.22;;;12.50;99.90;;;;;;4975976;28;20027;-59
2023/07/26 03:49:30;;;;;;;8.95;6.75;;;12.50;99.90;;;;;;4976653;28;20035;-59
2023/07/26 03:51:56;;;;;;;6.97;6.28;;;12.50;99.90;;;;;;4982113;28;20053;-59
2023/07/26 03:54:22;;;;;;;14.23;6.80;;;12.50;99.90;;;;;;4975825;28;20133;-59
2023/07/26 03:56:47;;;;;;;16.20;7.30;;;12.50;99.90;;;;;;4976608;28;20046;-59
2023/07/26 03:59:13;;;;;;;10.65;7.25;;;12.50;99.90;;;;;;4978771;28;20034;-59
2023/07/26 04:01:39;;;;;;;11.13;7.05;;;12.50;99.90;;;;;;4977344;28;20025;-60
2023/07/26 04:04:05;;;;;;;11.60;7.18;;;12.50;99.90;;;;;;4982134;28;20034;-58
2023/07/26 04:06:30;;;;;;;8.63;7.03;;;12.50;99.90;;;;;;4980853;28;20065;-60
2023/07/26 04:08:56;;;;;;;12.38;6.53;;;12.60;99.90;;;;;;4979952;28;20034;-58
2023/07/26 04:11:22;;;;;;;11.10;6.32;;;12.50;99.90;;;;;;4978285;28;20486;-59
2023/07/26 04:13:47;;;;;;;8.55;7.60;;;12.50;99.90;;;;;;4985756;28;20041;-58
2023/07/26 04:16:17;;;;;;;9.38;6.88;;;12.50;99.90;;;;;;4982618;28;20034;-59
2023/07/26 04:18:42;;;;;;;7.60;6.90;;;12.50;99.90;;;;;;4978783;28;20120;-59
2023/07/26 04:21:16;;;;;;;11.02;6.45;;;12.50;99.90;;;;;;4979585;28;20494;-58
2023/07/26 04:23:42;;;;;;;6.82;6.10;;;12.50;99.90;;;;;;4981514;28;20475;-59
2023/07/26 04:26:08;;;;;;;10.80;6.57;;;12.50;99.90;;;;;;4978182;28;20499;-59
2023/07/26 04:28:34;;;;;;;9.77;6.30;;;12.40;99.90;;;;;;4978525;28;20037;-59
2023/07/26 04:31:00;;;;;;;9.23;7.50;;;12.40;99.90;;;;;;4978574;28;20034;-58
2023/07/26 04:33:25;;;;;;;8.88;7.07;;;12.40;99.90;;;;;;4975998;28;20035;-59
2023/07/26 04:35:51;;;;;;;8.73;7.15;;;12.40;99.90;;;;;;4978719;28;20038;-58
2023/07/26 04:38:29;;;;;;;9.20;7.88;;;12.50;99.90;;;;;;4979671;28;20034;-59
2023/07/26 04:40:55;;;;;;;7.63;6.65;;;12.50;99.90;;;;;;4964778;28;20379;-58
2023/07/26 04:43:20;;;;;;;11.82;6.00;;;12.50;99.90;;;;;;4962582;28;20034;-58
2023/07/26 04:45:47;;;;;;;11.25;6.47;;;12.50;99.90;;;;;;4978384;28;20031;-58
2023/07/26 04:48:13;;;;;;;18.67;6.63;;;12.50;99.90;;;;;;4979374;28;20022;-58
2023/07/26 04:50:39;;;;;;;8.82;6.47;;;12.60;99.90;;;;;;4981463;28;20077;-59
2023/07/26 04:53:04;;;;;;;9.23;7.80;;;12.60;99.90;;;;;;4975095;28;20061;-58
2023/07/26 04:55:30;;;;;;;6.47;5.78;;;12.60;99.90;;;;;;4979122;28;20027;-59
2023/07/26 04:57:56;;;;;;;9.75;6.32;;;12.70;99.90;;;;;;4978896;28;20035;-58
2023/07/26 05:00:21;;;;;;;6.18;5.38;;;12.80;99.90;;;;;;4980570;28;20499;-59
2023/07/26 05:02:47;;;;;;;5.63;5.13;;;12.80;99.90;;;;;;4981840;28;20034;-59
2023/07/26 05:05:13;;;;;;;6.10;5.07;;;12.80;99.90;;;;;;4979378;28;20402;-59
2023/07/26 05:07:38;;;;;;;7.05;4.30;;;12.80;99.90;;;;;;4979804;28;20128;-60
2023/07/26 05:10:04;;;;;;;5.28;4.55;;;12.80;99.90;;;;;;4979904;28;20023;-59
2023/07/26 05:12:30;;;;;;;8.15;4.65;;;12.80;99.90;;;;;;4975473;28;20121;-59
2023/07/26 05:14:55;;;;;;;8.02;4.47;;;12.80;99.90;;;;;;4976967;28;20023;-59
2023/07/26 05:17:21;;;;;;;12.43;4.13;;;12.70;99.90;;;;;;4979447;28;20023;-58
2023/07/26 05:19:46;;;;;;;12.35;4.75;;;12.70;99.90;;;;;;4978258;28;20069;-59
2023/07/26 05:22:12;;;;;;;10.98;5.20;;;12.70;99.90;;;;;;4978903;28;20030;-59
2023/07/26 05:24:38;;;;;;;7.53;4.82;;;12.60;99.90;;;;;;4981733;28;20869;-59
2023/07/26 05:27:04;;;;;;;5.93;5.30;;;12.60;99.90;;;;;;4978073;28;20109;-60
2023/07/26 05:29:29;;;;;;;5.88;5.30;;;12.60;99.90;;;;;;4981471;28;20120;-58
2023/07/26 05:31:55;;;;;;;10.50;5.32;;;12.70;99.90;;;;;;4982468;28;20037;-59
2023/07/26 05:34:21;;;;;;;10.25;5.68;;;12.70;99.90;;;;;;4978665;28;20043;-59
2023/07/26 05:36:46;;;;;;;26.02;7.07;;;12.80;99.90;;;;;;4979485;28;20049;-59
2023/07/26 05:39:12;;;;;;;6.60;4.57;;;12.80;99.90;;;;;;4981214;28;20857;-58
2023/07/26 05:41:38;;;;;;;10.10;4.70;;;12.90;99.90;;;;;;4979875;28;20034;-59
2023/07/26 05:44:04;;;;;;;11.65;4.60;;;12.90;99.90;;;;;;4977881;28;20057;-58
2023/07/26 05:46:29;;;;;;;5.90;3.95;;;12.90;99.90;;;;;;4977998;28;20038;-58
2023/07/26 05:48:55;;;;;;;4.95;4.45;;;12.90;99.90;;;;;;4979218;28;20030;-59
2023/07/26 05:51:20;;;;;;;7.45;4.22;;;12.90;99.90;;;;;;4978906;28;20023;-59
2023/07/26 05:53:46;;;;;;;4.30;3.90;;;13.00;99.90;;;;;;4977933;28;20444;-58
2023/07/26 05:56:14;;;;;;;11.77;4.63;;;13.00;99.90;;;;;;4979809;28;20014;-59
2023/07/26 05:58:39;;;;;;;7.35;4.38;;;13.00;99.90;;;;;;4980061;28;20069;-59
2023/07/26 06:01:05;;;;;;;7.00;3.45;;;13.10;99.90;;;;;;4983758;28;20089;-58
2023/07/26 06:03:33;;;;;;;5.63;3.65;;;13.10;99.90;;;;;;4976906;28;20043;-59
2023/07/26 06:05:59;;;;;;;7.10;4.00;;;13.30;99.90;;;;;;4979201;28;20034;-59
2023/07/26 06:08:25;;;;;;;7.20;4.68;;;13.40;99.90;;;;;;4983957;28;20037;-59
2023/07/26 06:10:50;;;;;;;4.32;3.83;;;13.50;99.90;;;;;;4978981;28;20073;-58
2023/07/26 06:13:16;;;;;;;4.30;2.80;;;13.60;99.90;;;;;;4979949;28;20053;-59
2023/07/26 06:15:42;;;;;;;4.90;3.00;;;13.60;99.90;;;;;;4978440;28;20115;-59
2023/07/26 06:18:07;;;;;;;4.38;2.50;;;13.70;99.90;;;;;;4973881;28;20119;-59
2023/07/26 06:20:34;;;;;;;3.72;2.35;;;13.70;99.90;;;;;;4974924;28;20039;-59
2023/07/26 06:23:00;;;;;;;3.97;2.33;;;13.80;99.90;;;;;;4978758;28;20018;-58
2023/07/26 06:25:25;;;;;;;10.95;3.17;;;13.80;99.90;;;;;;4976987;28;20059;-60
2023/07/26 06:27:51;;;;;;;6.03;2.40;;;13.80;99.90;;;;;;4977124;28;20049;-59
2023/07/26 06:30:17;;;;;;;3.92;2.67;;;13.80;99.90;;;;;;4978433;28;20050;-59
2023/07/26 06:32:43;;;;;;;5.18;2.28;;;13.70;99.90;;;;;;4979373;28;20537;-60
2023/07/26 06:35:08;;;;;;;8.07;2.20;;;13.70;99.90;;;;;;4978434;28;20027;-59
2023/07/26 06:37:35;;;;;;;23.15;4.18;;;13.80;99.90;;;;;;4973964;28;20031;-59
2023/07/26 06:40:01;;;;;;;2.58;2.17;;;13.80;99.90;;;;;;4977317;28;20084;-58
2023/07/26 06:42:27;;;;;;;4.95;1.98;;;13.90;99.90;;;;;;4973849;28;20115;-60
2023/07/26 06:44:52;;;;;;;4.10;2.58;;;13.90;99.90;;;;;;4977328;28;20023;-57
2023/07/26 06:47:18;;;;;;;5.82;2.47;;;13.90;99.90;;;;;;4973917;28;20518;-58
2023/07/26 06:49:44;;;;;;;2.85;2.00;;;13.90;99.90;;;;;;4977209;28;20035;-60
2023/07/26 06:52:09;;;;;;;4.85;2.58;;;13.90;99.90;;;;;;4976562;28;20031;-59
2023/07/26 06:54:36;;;;;;;6.07;2.80;;;13.90;99.90;;;;;;4976884;28;20668;-59
2023/07/26 06:57:02;;;;;;;2.67;2.35;;;14.00;99.90;;;;;;4975419;28;20029;-59
2023/07/26 06:59:27;;;;;;;4.97;2.60;;;14.10;99.90;;;;;;4979760;28;20542;-59
2023/07/26 07:01:53;;;;;;;4.05;2.47;;;14.20;99.90;;;;;;4978271;28;20042;-59
2023/07/26 07:04:19;;;;;;;5.28;2.88;;;14.30;99.90;;;;;;4977620;28;20419;-59
2023/07/26 07:06:44;;;;;;;4.55;2.20;;;14.40;99.90;;;;;;4975909;28;20030;-58
2023/07/26 07:09:10;;;;;;;2.97;1.88;;;14.40;99.90;;;;;;4976390;28;20479;-58
2023/07/26 07:11:36;;;;;;;1.50;1.40;;;14.50;99.90;;;;;;4977742;28;20023;-59
2023/07/26 07:14:01;;;;;;;5.55;1.92;;;14.60;99.90;;;;;;4976950;28;20459;-59
2023/07/26 07:16:27;;;;;;;8.38;1.67;;;14.80;99.90;;;;;;4975907;28;20122;-59
2023/07/26 07:18:53;;;;;;;2.08;1.73;;;14.90;99.90;;;;;;4974947;28;20038;-58
2023/07/26 07:21:20;;;;;;;2.58;1.40;;;15.10;99.90;;;;;;4975929;28;20093;-59
2023/07/26 07:23:46;;;;;;;5.63;1.50;;;15.20;99.90;;;;;;4979026;28;20133;-60
2023/07/26 07:26:12;;;;;;;2.58;1.17;;;15.40;99.90;;;;;;4977536;28;20078;-59
2023/07/26 07:28:38;;;;;;;1.40;1.17;;;15.60;99.90;;;;;;4977306;28;20027;-59
2023/07/26 07:31:03;;;;;;;2.50;1.30;;;15.80;99.90;;;;;;4978027;28;20386;-59
2023/07/26 07:33:30;;;;;;;2.97;1.45;;;16.00;99.90;;;;;;4982401;28;20047;-60
2023/07/26 07:35:55;;;;;;;5.78;1.10;;;16.10;99.90;;;;;;4979835;28;20018;-59
2023/07/26 07:38:21;;;;;;;1.80;1.10;;;16.10;99.90;;;;;;4979342;28;20560;-59
2023/07/26 07:40:47;;;;;;;2.78;1.13;;;16.10;99.90;;;;;;4980815;28;20106;-58
2023/07/26 07:43:13;;;;;;;1.35;0.98;;;16.20;99.90;;;;;;4979018;28;20027;-59
2023/07/26 07:45:42;;;;;;;1.30;1.00;;;16.10;99.90;;;;;;4963879;28;20035;-59
2023/07/26 07:48:08;;;;;;;4.90;1.08;;;16.10;99.90;;;;;;4978955;28;20565;-59
2023/07/26 07:50:35;;;;;;;3.15;1.20;;;16.10;99.90;;;;;;4981457;28;20065;-59
2023/07/26 07:53:01;;;;;;;3.53;1.48;;;16.00;99.90;;;;;;4982576;28;20911;-59
2023/07/26 07:55:27;;;;;;;1.63;1.02;;;16.00;99.90;;;;;;4979562;28;20015;-59
2023/07/26 07:57:54;;;;;;;2.78;1.23;;;16.00;99.90;;;;;;4979083;28;20035;-58
2023/07/26 08:00:19;;;;;;;1.30;0.80;;;16.00;99.90;;;;;;4981182;28;20434;-60
2023/07/26 08:02:45;;;;;;;1.98;1.10;;;16.10;99.90;;;;;;4978827;28;20105;-60
2023/07/26 08:05:10;;;;;;;2.17;0.90;;;16.10;99.90;;;;;;4980187;28;20023;-60
2023/07/26 08:07:36;;;;;;;10.00;1.30;;;16.20;99.90;;;;;;4980364;28;20415;-59
2023/07/26 08:10:02;;;;;;;2.70;1.00;;;16.30;99.90;;;;;;4981228;28;20570;-59
2023/07/26 08:12:28;;;;;;;2.10;0.75;;;16.40;99.90;;;;;;4980322;28;20027;-59
2023/07/26 08:14:53;;;;;;;1.65;0.90;;;16.60;99.90;;;;;;4979250;28;20450;-58
2023/07/26 08:17:19;;;;;;;3.20;1.10;;;16.80;99.90;;;;;;4978976;28;20038;-58
2023/07/26 08:19:46;;;;;;;3.88;0.85;;;16.90;99.90;;;;;;4977326;28;20042;-57
2023/07/26 08:22:12;;;;;;;4.10;0.93;;;17.10;99.90;;;;;;4979214;28;20126;-58
2023/07/26 08:24:37;;;;;;;1.60;1.00;;;17.20;99.90;;;;;;4979758;28;20112;-58
2023/07/26 08:27:06;;;;;;;1.80;0.70;;;17.20;99.90;;;;;;4981640;28;20035;-58
2023/07/26 08:29:32;;;;;;;1.75;0.82;;;17.30;99.90;;;;;;4980888;28;20030;-58
2023/07/26 08:31:57;;;;;;;1.55;0.80;;;17.20;99.90;;;;;;4978492;28;20045;-58
2023/07/26 08:34:23;;;;;;;2.88;0.70;;;17.20;99.90;;;;;;4980648;28;20050;-58
2023/07/26 08:36:49;;;;;;;2.05;1.00;;;17.30;99.90;;;;;;4983267;28;20033;-58
2023/07/26 08:39:14;;;;;;;2.65;1.10;;;17.30;99.90;;;;;;4980493;28;20037;-58
2023/07/26 08:41:41;;;;;;;1.20;0.98;;;17.30;99.90;;;;;;4978477;28;20018;-57
2023/07/26 08:44:08;;;;;;;2.50;1.40;;;17.40;99.90;;;;;;4981756;28;20615;-58
2023/07/26 08:46:39;;;;;;;3.22;1.10;;;17.40;99.90;;;;;;4980339;28;20042;-58
2023/07/26 08:49:05;;;;;;;4.38;1.10;;;17.30;99.90;;;;;;4976497;28;20038;-58
2023/07/26 08:51:32;;;;;;;6.22;2.75;;;17.30;99.90;;;;;;4979547;28;20045;-57
2023/07/26 08:53:58;;;;;;;1.50;1.00;;;17.30;99.90;;;;;;4974537;28;20031;-56
2023/07/26 08:56:27;;;;;;;3.67;1.00;;;17.40;99.90;;;;;;4979224;28;20128;-58
2023/07/26 08:58:52;;;;;;;2.13;1.10;;;17.20;99.90;;;;;;4981370;28;20026;-58
2023/07/26 09:01:19;;;;;;;1.50;1.00;;;17.10;99.90;;;;;;4978658;28;20026;-57
2023/07/26 09:03:44;;;;;;;2.30;1.00;;;17.00;99.90;;;;;;4979461;28;20030;-59
2023/07/26 09:06:10;;;;;;;1.58;1.00;;;16.80;99.90;;;;;;4977245;28;20050;-57
2023/07/26 09:08:36;;;;;;;1.95;1.10;;;16.80;99.90;;;;;;4977561;28;20035;-58
2023/07/26 09:11:18;;;;;;;0.98;0.90;;;16.70;99.90;;;;;;4979464;28;20024;-58
2023/07/26 09:13:51;;;;;;;2.30;1.65;;;16.50;99.90;;;;;;4979429;28;20638;-57
2023/07/26 09:16:18;;;;;;;3.70;1.33;;;16.30;99.90;;;;;;4978180;28;20027;-57
2023/07/26 09:19:00;;;;;;;3.42;2.10;;;15.90;99.90;;;;;;4976971;28;20061;-56
2023/07/26 09:21:33;;;;;;;3.97;1.48;;;15.50;99.90;;;;;;4978156;28;20065;-58
2023/07/26 09:24:00;;;;;;;1.60;1.38;;;15.10;99.90;;;;;;4978321;28;20029;-56
2023/07/26 09:26:41;;;;;;;3.17;1.90;;;14.90;99.90;;;;;;4978627;28;20518;-58
2023/07/26 09:29:12;;;;;;;7.75;1.52;;;14.50;99.90;;;;;;4980581;28;20172;-59
2023/07/26 09:31:41;;;;;;;4.47;1.38;;;14.20;99.90;;;;;;4976475;28;20038;-58
2023/07/26 09:34:11;;;;;;;7.20;1.65;;;14.00;99.90;;;;;;4980212;28;20042;-56
2023/07/26 09:36:43;;;;;;;2.65;1.70;;;13.90;99.90;;;;;;4979521;28;20034;-58
2023/07/26 09:39:09;;;;;;;7.75;2.03;;;13.90;99.90;;;;;;4979561;28;20049;-57
2023/07/26 09:41:35;;;;;;;2.72;2.17;;;13.90;99.90;;;;;;4979838;28;20035;-58
2023/07/26 09:44:00;;;;;;;5.03;2.55;;;13.80;99.90;;;;;;4979651;28;20029;-59
2023/07/26 09:46:26;;;;;;;16.88;3.83;;;13.60;99.90;;;;;;4980851;28;20039;-56
2023/07/26 09:49:00;;;;;;;4.18;3.13;;;13.60;99.90;;;;;;4981381;28;20576;-58
2023/07/26 09:51:29;;;;;;;7.55;4.10;;;13.50;99.90;;;;;;4981604;28;20038;-57
2023/07/26 09:53:55;;;;;;;5.35;4.75;;;13.50;99.90;;;;;;4981668;28;20038;-58
2023/07/26 09:56:23;;;;;;;6.18;4.47;;;13.60;99.90;;;;;;4982929;28;20031;-57
2023/07/26 09:58:50;;;;;;;8.00;3.58;;;13.80;99.90;;;;;;4979700;28;20049;-58
2023/07/26 10:01:18;;;;;;;5.43;3.80;;;14.00;99.90;;;;;;4980571;28;20037;-58
2023/07/26 10:03:47;;;;;;;5.65;3.75;;;14.10;99.90;;;;;;4980151;28;20026;-59
2023/07/26 10:06:14;;;;;;;2.38;2.10;;;14.30;99.90;;;;;;4978020;28;20023;-58
2023/07/26 10:08:45;;;;;;;3.13;2.67;;;14.50;99.90;;;;;;4979875;28;20027;-58
2023/07/26 10:11:14;;;;;;;2.85;2.65;;;14.60;99.90;;;;;;4980073;28;20018;-59
2023/07/26 10:13:42;;;;;;;3.88;2.30;;;14.70;99.90;;;;;;4978437;28;20035;-57
2023/07/26 10:16:08;;;;;;;3.38;1.98;;;15.10;99.90;;;;;;4978110;28;20035;-59
2023/07/26 10:18:34;;;;;;;1.75;0.98;;;15.40;99.90;;;;;;4980739;28;20109;-57
2023/07/26 10:21:05;;;;;;;0.98;0.82;;;15.40;99.90;;;;;;4977596;28;20121;-58
2023/07/26 10:23:31;;;;;;;0.73;0.50;;;15.40;99.90;;;;;;4977391;28;20034;-59
2023/07/26 10:25:59;;;;;;;0.52;0.50;;;15.40;99.90;;;;;;4979219;28;20266;-59
2023/07/26 10:28:26;;;;;;;1.83;0.63;;;15.40;99.90;;;;;;4977916;28;20137;-58
2023/07/26 10:30:52;;;;;;;0.60;0.60;;;15.40;99.90;;;;;;4978606;28;20043;-58
2023/07/26 10:33:18;;;;;;;0.70;0.50;;;15.50;99.90;;;;;;4978773;28;20038;-57
2023/07/26 10:35:46;;;;;;;0.75;0.60;;;15.70;99.90;;;;;;4980126;28;20058;-58
2023/07/26 10:38:14;;;;;;;0.68;0.60;;;15.80;99.90;;;;;;4975494;28;20017;-59
2023/07/26 10:40:40;;;;;;;3.78;1.00;;;15.80;99.90;;;;;;4973110;28;20034;-58
2023/07/26 10:43:24;;;;;;;0.52;0.52;;;15.60;99.90;;;;;;4975257;28;20584;-57
2023/07/26 10:45:54;;;;;;;1.52;0.70;;;15.30;99.90;;;;;;4975258;28;20458;-57
2023/07/26 10:48:28;;;;;;;1.73;1.02;;;15.10;99.90;;;;;;4978204;28;20033;-59
2023/07/26 10:50:58;;;;;;;1.75;0.80;;;14.90;99.90;;;;;;4978479;28;20050;-59
2023/07/26 10:53:33;;;;;;;2.00;1.25;;;14.60;99.90;;;;;;4976952;28;20046;-58
2023/07/26 10:56:26;;;;;;;1.48;0.90;;;14.30;99.90;;;;;;4980070;28;20065;-59
2023/07/26 10:59:05;;;;;;;1.17;1.08;;;14.10;99.90;;;;;;4976015;28;20030;-58
2023/07/26 11:01:43;;;;;;;1.75;0.80;;;13.70;99.90;;;;;;4977004;28;20030;-59
2023/07/26 11:04:14;;;;;;;1.27;0.60;;;13.40;99.90;;;;;;4978079;28;20153;-58
2023/07/26 11:06:55;;;;;;;1.95;0.50;;;13.00;99.90;;;;;;4978500;28;20105;-59
2023/07/26 11:09:34;;;;;;;2.60;0.98;;;12.50;99.90;;;;;;4978920;28;20027;-59
2023/07/26 11:12:10;;;;;;;0.70;0.60;;;12.10;99.90;;;;;;4980429;28;20488;-59
2023/07/26 11:14:37;;;;;;;0.43;0.43;;;11.90;99.90;;;;;;4980692;28;20039;-59
2023/07/26 11:17:16;;;;;;;0.70;0.50;;;11.70;99.90;;;;;;4982926;28;20026;-57
2023/07/26 11:19:47;;;;;;;1.58;0.50;;;11.60;99.90;;;;;;4983451;28;20109;-59
2023/07/26 11:22:12;;;;;;;2.05;1.13;;;11.50;99.90;;;;;;4980381;28;20834;-60
2023/07/26 11:24:38;;;;;;;3.60;0.55;;;11.50;99.90;;;;;;4979174;28;20035;-57
2023/07/26 11:27:06;;;;;;;1.50;0.85;;;11.40;99.90;;;;;;4980637;28;20125;-60
2023/07/26 11:29:34;;;;;;;1.55;0.70;;;11.40;99.90;;;;;;4980154;28;20014;-58
2023/07/26 11:32:00;;;;;;;1.20;0.77;;;11.40;99.90;;;;;;4979897;28;20559;-59
2023/07/26 11:34:26;;;;;;;0.70;0.70;;;11.50;99.90;;;;;;4979613;28;20145;-60
2023/07/26 11:37:04;;;;;;;3.22;1.30;;;11.60;99.90;;;;;;4978493;28;20031;-58
2023/07/26 11:39:29;;;;;;;1.40;1.30;;;11.80;99.90;;;;;;4980824;28;20026;-59
2023/07/26 11:41:55;;;;;;;2.20;1.23;;;12.00;99.90;;;;;;4981299;28;20398;-60
2023/07/26 11:44:22;;;;;;;2.05;0.93;;;12.10;99.90;;;;;;4979311;28;20042;-56
2023/07/26 11:46:49;;;;;;;2.13;1.08;;;12.20;99.90;;;;;;4979343;28;20093;-58
2023/07/26 11:49:23;;;;;;;2.92;1.20;;;12.40;99.90;;;;;;4977834;28;20051;-59
2023/07/26 11:51:50;;;;;;;2.17;0.93;;;12.70;99.90;;;;;;4980072;28;20034;-59
2023/07/26 11:54:16;;;;;;;1.48;0.95;;;12.90;99.90;;;;;;4979813;28;20046;-58
2023/07/26 11:56:43;;;;;;;1.15;0.80;;;13.10;99.90;;;;;;4978859;28;20113;-58
2023/07/26 11:59:10;;;;;;;0.77;0.77;;;13.20;99.90;;;;;;4979779;28;20185;-58
2023/07/26 12:01:36;;;;;;;1.05;0.88;;;13.40;99.90;;;;;;4981530;28;20159;-57
2023/07/26 12:04:13;;;;;;;9.10;2.13;;;13.60;99.90;;;;;;4980707;28;20031;-58
2023/07/26 12:06:40;;;;;;;0.73;0.73;;;13.70;99.90;;;;;;4980219;28;20037;-59
2023/07/26 12:09:10;;;;;;;1.58;0.98;;;13.70;99.90;;;;;;4980543;28;20035;-60
2023/07/26 12:11:42;;;;;;;1.23;0.77;;;13.70;99.90;;;;;;4978851;28;20042;-59
2023/07/26 12:14:08;;;;;;;1.88;0.98;;;13.80;99.90;;;;;;4976616;28;21133;-59
2023/07/26 12:16:35;;;;;;;0.68;0.68;;;13.90;99.90;;;;;;4979728;28;20041;-58
2023/07/26 12:19:01;;;;;;;0.85;0.80;;;14.10;99.90;;;;;;4979592;28;20042;-58
2023/07/26 12:21:30;;;;;;;0.90;0.90;;;14.20;99.90;;;;;;4979258;28;20029;-59
2023/07/26 12:24:03;;;;;;;1.63;1.23;;;14.40;99.90;;;;;;4977323;28;20058;-57
2023/07/26 12:26:31;;;;;;;1.70;1.00;;;14.60;99.90;;;;;;4979084;28;20049;-57
2023/07/26 12:28:59;;;;;;;2.45;1.33;;;14.80;99.90;;;;;;5021507;28;20022;-58
2023/07/26 12:31:27;;;;;;;0.82;0.82;;;14.90;99.90;;;;;;5017419;28;20033;-59
2023/07/26 12:34:03;;;;;;;1.05;0.88;;;15.00;99.90;;;;;;5018500;28;20053;-58
2023/07/26 12:36:41;;;;;;;0.90;0.70;;;15.10;99.90;;;;;;5017660;28;20030;-58
2023/07/26 12:39:08;;;;;;;1.23;0.80;;;15.10;99.90;;;;;;5019452;28;20043;-58
2023/07/26 12:41:38;;;;;;;0.90;0.70;;;15.30;99.90;;;;;;5018473;28;20101;-58
2023/07/26 12:44:07;;;;;;;1.05;0.70;;;15.30;99.90;;;;;;5017684;28;20359;-58
2023/07/26 12:46:34;;;;;;;1.50;0.80;;;15.40;99.90;;;;;;5017201;28;20414;-59